createdAt,value
2019-02-17T00:00:39.081Z,60.79
2019-02-17T00:03:08.889Z,60.92
2019-02-17T00:05:38.589Z,61.35
2019-02-17T00:08:08.246Z,61.50
2019-02-17T00:10:37.887Z,62.30
2019-02-17T00:13:07.840Z,62.78
2019-02-17T00:15:37.506Z,63.05
2019-02-17T00:18:09.137Z,63.41
2019-02-17T00:20:38.791Z,63.85
2019-02-17T00:23:08.485Z,64.52
2019-02-17T00:25:38.241Z,64.34
2019-02-17T00:28:07.866Z,64.46
2019-02-17T00:30:38.278Z,64.92
2019-02-17T00:33:07.906Z,65.16
2019-02-17T00:35:37.544Z,65.35
2019-02-17T00:38:07.489Z,65.34
2019-02-17T00:40:37.194Z,65.53
2019-02-17T00:43:07.580Z,66.01
2019-02-17T00:45:37.389Z,65.54
2019-02-17T00:48:07.014Z,65.51
2019-02-17T00:50:36.768Z,65.50
2019-02-17T00:53:06.444Z,65.78
2019-02-17T00:55:36.086Z,65.89
2019-02-17T00:58:05.831Z,65.81
2019-02-17T01:00:35.797Z,66.20
2019-02-17T01:03:05.539Z,66.08
2019-02-17T01:05:35.247Z,66.25
2019-02-17T01:08:05.598Z,66.41
2019-02-17T01:10:35.391Z,66.66
2019-02-17T01:13:05.897Z,66.69
2019-02-17T01:15:35.687Z,66.69
2019-02-17T01:18:05.488Z,67.22
2019-02-17T01:20:35.594Z,67.19
2019-02-17T01:23:05.294Z,67.32
2019-02-17T01:25:34.921Z,67.51
2019-02-17T01:28:04.690Z,67.57
2019-02-17T01:30:34.462Z,67.74
2019-02-17T01:33:04.365Z,67.51
2019-02-17T01:35:34.054Z,67.66
2019-02-17T01:38:04.589Z,67.54
2019-02-17T01:40:34.261Z,67.54
2019-02-17T01:43:04.561Z,67.49
2019-02-17T01:45:34.430Z,67.67
2019-02-17T01:48:04.591Z,67.71
2019-02-17T01:50:35.305Z,67.87
2019-02-17T01:53:06.046Z,67.97
2019-02-17T01:55:36.013Z,68.11
2019-02-17T01:58:06.053Z,68.38
2019-02-17T02:00:36.822Z,68.56
2019-02-17T02:03:06.824Z,68.63
2019-02-17T02:05:36.614Z,68.94
2019-02-17T02:08:06.688Z,69.28
2019-02-17T02:10:36.427Z,70.04
2019-02-17T02:13:06.996Z,70.25
2019-02-17T02:15:36.860Z,70.54
2019-02-17T02:18:06.488Z,70.27
2019-02-17T02:20:36.115Z,70.13
2019-02-17T02:23:06.265Z,70.12
2019-02-17T02:25:38.743Z,69.96
2019-02-17T02:28:09.603Z,69.88
2019-02-17T02:30:40.054Z,69.79
2019-02-17T02:33:11.651Z,69.70
2019-02-17T02:35:43.079Z,69.64
2019-02-17T02:38:13.660Z,69.51
2019-02-17T02:40:43.949Z,69.51
2019-02-17T02:43:13.694Z,69.72
2019-02-17T02:45:43.654Z,69.83
2019-02-17T02:48:14.055Z,69.89
2019-02-17T02:50:44.010Z,70.28
2019-02-17T02:53:13.785Z,70.63
2019-02-17T02:55:43.793Z,70.76
2019-02-17T02:58:13.408Z,70.91
2019-02-17T03:00:43.548Z,71.19
2019-02-17T03:03:13.182Z,71.87
2019-02-17T03:05:44.838Z,72.21
2019-02-17T03:08:14.619Z,72.35
2019-02-17T03:10:44.250Z,72.60
2019-02-17T03:13:13.993Z,72.72
2019-02-17T03:15:43.700Z,72.69
2019-02-17T03:18:15.114Z,72.76
2019-02-17T03:20:44.737Z,73.21
2019-02-17T03:23:16.254Z,73.49
2019-02-17T03:25:46.445Z,73.40
2019-02-17T03:28:16.082Z,73.91
2019-02-17T03:30:46.451Z,74.05
2019-02-17T03:33:16.116Z,73.84
2019-02-17T03:35:45.706Z,74.17
2019-02-17T03:38:15.367Z,74.17
2019-02-17T03:40:45.869Z,74.21
2019-02-17T03:43:15.781Z,74.86
2019-02-17T03:45:45.829Z,75.23
2019-02-17T03:48:16.135Z,75.57
2019-02-17T03:50:45.764Z,75.88
2019-02-17T03:53:17.406Z,76.23
2019-02-17T03:55:47.156Z,76.42
2019-02-17T03:58:17.742Z,76.85
2019-02-17T04:00:47.451Z,76.80
2019-02-17T04:03:17.186Z,77.10
2019-02-17T04:05:47.165Z,76.89
2019-02-17T04:08:17.507Z,76.89
2019-02-17T04:10:47.501Z,76.84
2019-02-17T04:13:18.226Z,76.90
2019-02-17T04:15:47.992Z,77.00
2019-02-17T04:18:18.267Z,76.86
2019-02-17T04:20:47.909Z,76.92
2019-02-17T04:23:17.965Z,77.53
2019-02-17T04:25:48.136Z,77.69
2019-02-17T04:28:17.781Z,77.42
2019-02-17T04:30:48.066Z,77.62
2019-02-17T04:33:19.378Z,77.33
2019-02-17T04:35:49.339Z,77.57
2019-02-17T04:38:19.118Z,77.71
2019-02-17T04:40:48.751Z,78.11
2019-02-17T04:43:18.729Z,78.46
2019-02-17T04:45:48.790Z,78.57
2019-02-17T04:48:19.492Z,78.67
2019-02-17T04:50:49.710Z,78.59
2019-02-17T04:53:19.452Z,78.59
2019-02-17T04:55:49.200Z,78.41
2019-02-17T04:58:19.444Z,78.49
2019-02-17T05:00:50.108Z,78.34
2019-02-17T05:03:21.481Z,78.30
2019-02-17T05:05:51.177Z,78.17
2019-02-17T05:08:20.806Z,77.98
2019-02-17T05:10:51.523Z,77.67
2019-02-17T05:13:21.192Z,77.54
2019-02-17T05:15:51.792Z,77.33
2019-02-17T05:18:21.410Z,77.01
2019-02-17T05:20:51.237Z,77.22
2019-02-17T05:23:20.842Z,77.25
2019-02-17T05:25:50.591Z,77.01
2019-02-17T05:28:20.278Z,77.12
2019-02-17T05:30:53.123Z,77.16
2019-02-17T05:33:24.865Z,77.06
2019-02-17T05:35:56.865Z,76.78
2019-02-17T05:38:27.253Z,76.83
2019-02-17T05:40:57.160Z,76.59
2019-02-17T05:43:27.072Z,76.59
2019-02-17T05:45:56.522Z,76.80
2019-02-17T05:48:29.376Z,76.84
2019-02-17T05:51:01.274Z,76.85
2019-02-17T05:53:32.421Z,76.76
2019-02-17T05:56:03.683Z,76.66
2019-02-17T05:58:33.879Z,76.71
2019-02-17T06:01:05.546Z,76.73
2019-02-17T06:03:35.708Z,76.75
2019-02-17T06:06:05.409Z,76.93
2019-02-17T06:08:35.031Z,77.00
2019-02-17T06:11:04.666Z,76.94
2019-02-17T06:13:34.335Z,76.92
2019-02-17T06:16:03.970Z,76.83
2019-02-17T06:18:33.860Z,76.70
2019-02-17T06:21:03.530Z,76.67
2019-02-17T06:23:33.575Z,77.04
2019-02-17T06:26:03.320Z,77.03
2019-02-17T06:28:34.496Z,76.99
2019-02-17T06:31:13.898Z,77.24
2019-02-17T06:33:36.664Z,77.27
2019-02-17T06:36:06.901Z,76.93
2019-02-17T06:38:37.010Z,77.00
2019-02-17T06:41:06.655Z,77.06
2019-02-17T06:43:37.413Z,77.06
2019-02-17T06:46:07.380Z,77.04
2019-02-17T06:48:37.299Z,77.37
2019-02-17T06:51:06.974Z,77.48
2019-02-17T06:53:37.763Z,77.66
2019-02-17T06:56:09.222Z,77.91
2019-02-17T06:58:40.695Z,78.02
2019-02-17T07:01:10.328Z,77.95
2019-02-17T07:03:40.068Z,77.92
2019-02-17T07:06:14.451Z,77.65
2019-02-17T07:08:44.175Z,77.31
2019-02-17T07:11:14.155Z,76.98
2019-02-17T07:13:43.849Z,76.47
2019-02-17T07:16:15.132Z,76.56
2019-02-17T07:18:45.312Z,76.28
2019-02-17T07:21:15.003Z,76.60
2019-02-17T07:23:45.196Z,76.52
2019-02-17T07:26:17.255Z,76.34
2019-02-17T07:28:47.398Z,76.04
2019-02-17T07:31:17.089Z,75.93
2019-02-17T07:33:47.590Z,75.80
2019-02-17T07:36:17.638Z,75.58
2019-02-17T07:38:47.956Z,75.46
2019-02-17T07:41:17.852Z,75.20
2019-02-17T07:43:47.660Z,75.16
2019-02-17T07:46:17.398Z,75.09
2019-02-17T07:48:47.026Z,75.22
2019-02-17T07:51:16.802Z,74.92
2019-02-17T07:53:46.817Z,74.81
2019-02-17T07:56:16.448Z,74.92
2019-02-17T07:58:46.243Z,74.80
2019-02-17T08:01:15.951Z,74.80
2019-02-17T08:03:45.965Z,75.05
2019-02-17T08:06:15.779Z,74.98
2019-02-17T08:08:45.405Z,74.90
2019-02-17T08:11:15.155Z,74.95
2019-02-17T08:13:44.935Z,74.76
2019-02-17T08:16:14.574Z,75.04
2019-02-17T08:18:44.582Z,74.93
2019-02-17T08:21:15.089Z,74.94
2019-02-17T08:23:44.798Z,74.96
2019-02-17T08:26:14.695Z,74.83
2019-02-17T08:28:45.829Z,74.47
2019-02-17T08:31:15.454Z,74.37
2019-02-17T08:33:45.961Z,74.44
2019-02-17T08:36:16.591Z,74.46
2019-02-17T08:38:46.397Z,74.72
2019-02-17T08:41:16.022Z,74.74
2019-02-17T08:43:45.697Z,74.86
2019-02-17T08:46:15.312Z,74.67
2019-02-17T08:48:44.947Z,74.75
2019-02-17T08:51:14.868Z,74.76
2019-02-17T08:53:44.666Z,74.78
2019-02-17T08:56:18.698Z,74.72
2019-02-17T08:58:48.475Z,74.76
2019-02-17T09:01:19.648Z,74.38
2019-02-17T09:03:50.038Z,74.08
2019-02-17T09:06:21.316Z,74.24
2019-02-17T09:08:51.446Z,74.11
2019-02-17T09:11:21.874Z,73.72
2019-02-17T09:13:51.696Z,73.33
2019-02-17T09:16:21.448Z,73.28
2019-02-17T09:18:51.141Z,73.15
2019-02-17T09:21:22.483Z,72.98
2019-02-17T09:23:52.262Z,73.16
2019-02-17T09:26:21.857Z,72.95
2019-02-17T09:28:51.611Z,73.10
2019-02-17T09:31:21.245Z,72.71
2019-02-17T09:33:50.875Z,72.59
2019-02-17T09:36:21.112Z,72.46
2019-02-17T09:38:53.579Z,72.38
2019-02-17T09:41:23.217Z,72.53
2019-02-17T09:43:53.087Z,72.60
2019-02-17T09:46:23.109Z,72.27
2019-02-17T09:48:52.808Z,72.51
2019-02-17T09:51:22.958Z,72.41
2019-02-17T09:53:52.585Z,72.48
2019-02-17T09:56:22.222Z,72.07
2019-02-17T09:58:54.973Z,71.88
2019-02-17T10:01:24.770Z,71.61
2019-02-17T10:03:54.525Z,71.07
2019-02-17T10:06:24.678Z,70.84
2019-02-17T10:08:54.307Z,71.23
2019-02-17T10:11:23.944Z,71.34
2019-02-17T10:13:55.040Z,71.18
2019-02-17T10:16:24.694Z,71.20
2019-02-17T10:18:55.186Z,71.15
2019-02-17T10:21:24.869Z,70.96
2019-02-17T10:23:54.509Z,70.81
2019-02-17T10:26:26.960Z,70.66
2019-02-17T10:28:56.824Z,70.04
2019-02-17T10:31:26.450Z,70.42
2019-02-17T10:33:56.084Z,70.24
2019-02-17T10:36:25.830Z,70.21
2019-02-17T10:38:55.451Z,70.32
2019-02-17T10:41:25.091Z,70.29
2019-02-17T10:43:54.849Z,69.88
2019-02-17T10:46:24.623Z,70.06
2019-02-17T10:48:54.242Z,69.98
2019-02-17T10:51:26.354Z,69.60
2019-02-17T10:53:55.420Z,69.14
2019-02-17T10:56:26.639Z,68.71
2019-02-17T10:58:57.070Z,68.83
2019-02-17T11:01:27.077Z,68.79
2019-02-17T11:04:07.903Z,68.08
2019-02-17T11:06:38.407Z,68.11
2019-02-17T11:09:10.152Z,68.20
2019-02-17T11:11:40.476Z,68.33
2019-02-17T11:14:10.112Z,68.37
2019-02-17T11:16:39.830Z,68.01
2019-02-17T11:19:09.614Z,67.74
2019-02-17T11:21:42.154Z,67.46
2019-02-17T11:24:11.806Z,67.14
2019-02-17T11:26:43.054Z,66.90
2019-02-17T11:29:12.694Z,66.98
2019-02-17T11:31:42.471Z,66.30
2019-02-17T11:34:12.286Z,66.08
2019-02-17T11:36:41.923Z,65.89
2019-02-17T11:39:13.227Z,66.24
2019-02-17T11:41:42.945Z,66.11
2019-02-17T11:44:12.638Z,66.40
2019-02-17T11:46:42.286Z,66.52
2019-02-17T11:49:12.651Z,66.34
2019-02-17T11:51:42.358Z,65.92
2019-02-17T11:54:12.112Z,65.89
2019-02-17T11:56:41.906Z,65.62
2019-02-17T11:59:11.536Z,65.62
2019-02-17T12:01:43.903Z,65.67
2019-02-17T12:04:13.609Z,65.74
2019-02-17T12:06:43.321Z,65.77
2019-02-17T12:09:13.550Z,65.50
2019-02-17T12:11:43.402Z,65.80
2019-02-17T12:14:13.050Z,65.53
2019-02-17T12:16:42.749Z,65.50
2019-02-17T12:19:12.503Z,65.31
2019-02-17T12:21:51.693Z,65.74
2019-02-17T12:24:23.323Z,65.80
2019-02-17T12:27:00.337Z,65.55
2019-02-17T12:29:38.526Z,65.35
2019-02-17T12:32:09.596Z,65.28
2019-02-17T12:34:39.606Z,65.54
2019-02-17T12:37:09.285Z,64.95
2019-02-17T12:39:38.993Z,65.09
2019-02-17T12:42:08.696Z,64.64
2019-02-17T12:44:38.820Z,63.86
2019-02-17T12:47:09.462Z,63.83
2019-02-17T12:49:39.938Z,62.17
2019-02-17T12:52:09.619Z,59.45
2019-02-17T12:54:39.265Z,58.05
2019-02-17T12:57:10.671Z,57.09
2019-02-17T12:59:40.363Z,58.32
2019-02-17T13:02:10.070Z,58.56
2019-02-17T13:04:41.513Z,57.79
2019-02-17T13:07:15.311Z,57.35
2019-02-17T13:09:46.470Z,55.29
2019-02-17T13:12:19.038Z,55.96
2019-02-17T13:14:49.213Z,57.22
2019-02-17T13:17:22.016Z,58.38
2019-02-17T13:19:58.086Z,60.24
2019-02-17T13:22:31.962Z,61.77
2019-02-17T13:25:04.155Z,63.08
2019-02-17T13:27:46.837Z,64.30
2019-02-17T13:30:20.309Z,65.39
2019-02-17T13:32:53.424Z,66.37
2019-02-17T13:35:25.747Z,66.88
2019-02-17T13:38:00.724Z,67.25
2019-02-17T13:40:34.063Z,67.54
2019-02-17T13:43:06.010Z,67.89
2019-02-17T13:45:44.901Z,68.30
2019-02-17T13:48:16.027Z,68.75
2019-02-17T13:50:45.796Z,68.58
2019-02-17T13:53:16.017Z,68.72
2019-02-17T13:55:48.803Z,68.53
2019-02-17T13:58:18.539Z,69.02
2019-02-17T14:00:48.400Z,69.07
2019-02-17T14:03:18.310Z,69.19
2019-02-17T14:05:48.020Z,69.75
2019-02-17T14:08:20.896Z,69.50
2019-02-17T14:10:50.591Z,69.79
2019-02-17T14:13:20.260Z,70.08
2019-02-17T14:15:50.006Z,70.64
2019-02-17T14:18:22.043Z,71.23
2019-02-17T14:20:52.733Z,71.35
2019-02-17T14:23:22.621Z,71.92
2019-02-17T14:25:52.427Z,72.02
2019-02-17T14:28:22.275Z,72.01
2019-02-17T14:30:53.924Z,72.12
2019-02-17T14:33:24.073Z,72.35
2019-02-17T14:35:54.418Z,72.31
2019-02-17T14:38:24.887Z,72.26
2019-02-17T14:40:54.521Z,72.32
2019-02-17T14:43:24.206Z,72.47
2019-02-17T14:45:55.266Z,72.57
2019-02-17T14:48:24.894Z,72.96
2019-02-17T14:50:54.609Z,73.07
2019-02-17T14:53:24.511Z,73.20
2019-02-17T14:55:54.152Z,73.32
2019-02-17T14:58:23.804Z,73.42
2019-02-17T15:00:53.532Z,73.63
2019-02-17T15:03:23.227Z,73.96
2019-02-17T15:05:53.771Z,74.06
2019-02-17T15:08:24.814Z,74.26
2019-02-17T15:10:54.618Z,74.61
2019-02-17T15:13:24.915Z,74.95
2019-02-17T15:15:54.831Z,75.16
2019-02-17T15:18:24.549Z,75.25
2019-02-17T15:20:56.182Z,75.40
2019-02-17T15:23:26.085Z,75.93
2019-02-17T15:25:55.862Z,75.88
2019-02-17T15:28:25.552Z,76.13
2019-02-17T15:30:55.279Z,76.59
2019-02-17T15:33:27.785Z,76.92
2019-02-17T15:35:57.605Z,76.98
2019-02-17T15:38:29.833Z,77.30
2019-02-17T15:41:06.041Z,77.11
2019-02-17T15:43:36.835Z,77.82
2019-02-17T15:46:07.044Z,77.98
2019-02-17T15:48:37.234Z,77.92
2019-02-17T15:51:07.160Z,78.46
2019-02-17T15:53:36.781Z,78.75
2019-02-17T15:56:07.112Z,78.85
2019-02-17T15:58:36.813Z,78.94
2019-02-17T16:01:09.166Z,78.95
2019-02-17T16:03:39.235Z,78.91
2019-02-17T16:06:09.007Z,79.11
2019-02-17T16:08:41.430Z,78.74
2019-02-17T16:11:12.064Z,79.33
2019-02-17T16:13:41.690Z,79.24
2019-02-17T16:16:11.453Z,79.65
2019-02-17T16:18:41.323Z,80.20
2019-02-17T16:21:15.645Z,80.42
2019-02-17T16:23:47.698Z,80.64
2019-02-17T16:26:19.579Z,80.64
2019-02-17T16:28:49.660Z,80.73
2019-02-17T16:31:21.624Z,80.90
2019-02-17T16:33:55.361Z,81.34
2019-02-17T16:36:27.331Z,81.35
2019-02-17T16:38:58.429Z,81.37
2019-02-17T16:41:28.210Z,81.41
2019-02-17T16:43:57.935Z,81.98
2019-02-17T16:46:27.564Z,82.09
2019-02-17T16:48:57.360Z,82.12
2019-02-17T16:51:27.761Z,82.10
2019-02-17T16:53:57.400Z,82.06
2019-02-17T16:56:27.919Z,82.73
2019-02-17T16:58:57.548Z,82.61
2019-02-17T17:01:27.181Z,82.65
2019-02-17T17:03:57.017Z,82.61
2019-02-17T17:06:27.087Z,82.95
2019-02-17T17:08:56.720Z,82.73
2019-02-17T17:11:29.302Z,82.37
2019-02-17T17:14:00.870Z,82.78
2019-02-17T17:16:36.979Z,82.78
2019-02-17T17:19:06.674Z,82.87
2019-02-17T17:21:36.313Z,82.99
2019-02-17T17:27:53.717Z,83.12
2019-02-17T17:30:23.741Z,83.13
2019-02-17T17:32:54.373Z,83.32
2019-02-17T17:35:24.019Z,83.22
2019-02-17T17:37:53.730Z,83.45
2019-02-17T17:40:23.372Z,83.53
2019-02-17T17:42:53.013Z,83.65
2019-02-17T17:45:23.238Z,83.72
2019-02-17T17:47:52.890Z,83.60
2019-02-17T17:50:22.524Z,83.72
2019-02-17T17:52:53.796Z,84.06
2019-02-17T17:55:23.418Z,84.04
2019-02-17T17:57:53.606Z,83.97
2019-02-17T18:00:34.211Z,84.08
2019-02-17T18:03:03.846Z,84.22
2019-02-17T18:05:33.586Z,84.41
2019-02-17T18:08:03.446Z,84.35
2019-02-17T18:10:33.184Z,84.80
2019-02-17T18:13:02.929Z,84.94
2019-02-17T18:15:32.606Z,85.00
2019-02-17T18:18:03.666Z,85.44
2019-02-17T18:20:33.303Z,85.31
2019-02-17T18:23:03.018Z,85.17
2019-02-17T18:25:32.734Z,85.40
2019-02-17T18:28:02.350Z,85.29
2019-02-17T18:30:32.038Z,85.40
2019-02-17T18:33:01.666Z,85.16
2019-02-17T18:35:31.331Z,85.20
2019-02-17T18:38:01.022Z,84.98
2019-02-17T18:40:30.656Z,85.00
2019-02-17T18:43:00.404Z,85.00
2019-02-17T18:45:30.102Z,84.72
2019-02-17T18:48:00.463Z,84.47
2019-02-17T18:50:30.160Z,84.51
2019-02-17T18:53:02.693Z,84.37
2019-02-17T18:55:32.328Z,84.37
2019-02-17T18:58:02.912Z,84.37
2019-02-17T19:00:32.685Z,84.41
2019-02-17T19:03:03.568Z,84.53
2019-02-17T19:05:33.284Z,84.64
2019-02-17T19:08:04.854Z,84.36
2019-02-17T19:10:36.340Z,84.17
2019-02-17T19:13:06.030Z,84.45
2019-02-17T19:15:35.802Z,84.74
2019-02-17T19:18:07.816Z,84.90
2019-02-17T19:20:40.712Z,84.90
2019-02-17T19:23:10.446Z,85.18
2019-02-17T19:25:40.957Z,84.83
2019-02-17T19:28:13.307Z,84.78
2019-02-17T19:30:43.198Z,84.84
2019-02-17T19:33:13.251Z,84.95
2019-02-17T19:35:44.843Z,85.00
2019-02-17T19:38:14.619Z,85.34
2019-02-17T19:40:51.434Z,85.62
2019-02-17T19:43:22.810Z,85.81
2019-02-17T19:45:52.434Z,85.72
2019-02-17T19:48:22.372Z,85.63
2019-02-17T19:50:53.859Z,85.68
2019-02-17T19:53:23.735Z,85.63
2019-02-17T19:55:53.502Z,85.32
2019-02-17T19:58:23.164Z,85.18
2019-02-17T20:00:55.017Z,85.28
2019-02-17T20:03:38.289Z,85.33
2019-02-17T20:06:09.205Z,85.59
2019-02-17T20:08:38.841Z,85.58
2019-02-17T20:11:08.928Z,85.67
2019-02-17T20:13:39.245Z,85.67
2019-02-17T20:16:08.872Z,85.85
2019-02-17T20:18:41.117Z,86.10
2019-02-17T20:21:10.748Z,85.38
2019-02-17T20:23:40.503Z,85.25
2019-02-17T20:26:10.782Z,85.12
2019-02-17T20:28:43.338Z,85.17
2019-02-17T20:31:11.762Z,85.30
2019-02-17T20:33:41.433Z,85.56
2019-02-17T20:36:11.074Z,85.51
2019-02-17T20:38:41.021Z,85.48
2019-02-17T20:41:10.730Z,85.34
2019-02-17T20:43:40.471Z,85.09
2019-02-17T20:46:10.229Z,84.83
2019-02-17T20:48:39.867Z,84.54
2019-02-17T20:51:09.549Z,84.30
2019-02-17T20:53:39.180Z,84.25
2019-02-17T20:56:10.236Z,84.21
2019-02-17T20:58:40.212Z,84.54
2019-02-17T21:01:09.853Z,84.72
2019-02-17T21:03:39.636Z,85.00
2019-02-17T21:06:13.065Z,84.89
2019-02-17T21:08:43.208Z,84.96
2019-02-17T21:11:13.148Z,84.73
2019-02-17T21:13:43.260Z,84.82
2019-02-17T21:16:13.623Z,84.83
2019-02-17T21:18:43.459Z,85.07
2019-02-17T21:21:13.168Z,85.02
2019-02-17T21:23:42.876Z,84.81
2019-02-17T21:26:13.133Z,84.82
2019-02-17T21:28:43.020Z,85.00
2019-02-17T21:31:15.707Z,84.93
2019-02-17T21:33:45.352Z,84.95
2019-02-17T21:36:23.267Z,85.20
2019-02-17T21:38:50.649Z,85.26
2019-02-17T21:41:20.411Z,85.36
2019-02-17T21:43:50.976Z,85.13
2019-02-17T21:46:23.685Z,85.46
2019-02-17T21:48:54.349Z,85.85
2019-02-17T21:51:23.983Z,86.18
2019-02-17T21:53:53.987Z,86.27
2019-02-17T21:56:23.687Z,86.61
2019-02-17T21:58:53.344Z,86.75
2019-02-17T22:01:23.288Z,86.93
2019-02-17T22:03:53.236Z,86.93
2019-02-17T22:06:32.902Z,87.14
2019-02-17T22:08:54.193Z,87.37
2019-02-17T22:11:26.977Z,87.54
2019-02-17T22:13:56.606Z,87.74
2019-02-17T22:16:26.221Z,88.04
2019-02-17T22:18:59.016Z,88.71
2019-02-17T22:21:36.351Z,88.67
2019-02-17T22:24:07.017Z,88.10
2019-02-17T22:26:39.650Z,88.11
2019-02-17T22:29:13.961Z,88.17
2019-02-17T22:31:43.964Z,88.26
2019-02-17T22:34:15.413Z,88.49
2019-02-17T22:36:48.178Z,88.70
2019-02-17T22:39:18.491Z,88.73
2019-02-17T22:41:53.006Z,88.95
2019-02-17T22:44:24.455Z,89.01
2019-02-17T22:46:56.341Z,89.10
2019-02-17T22:49:28.386Z,89.17
2019-02-17T22:51:58.124Z,89.41
2019-02-17T22:54:27.856Z,89.55
2019-02-17T22:56:59.675Z,89.55
2019-02-17T22:59:30.743Z,89.68
2019-02-17T23:02:00.660Z,89.83
2019-02-17T23:04:32.109Z,89.92
2019-02-17T23:07:03.232Z,90.11
2019-02-17T23:09:34.672Z,90.26
2019-02-17T23:12:04.557Z,90.40
2019-02-17T23:14:34.523Z,90.49
2019-02-17T23:17:04.284Z,90.45
2019-02-17T23:19:33.989Z,90.52
2019-02-17T23:22:06.665Z,90.63
2019-02-17T23:24:36.567Z,90.68
2019-02-17T23:27:07.832Z,90.91
2019-02-17T23:29:37.751Z,91.11
2019-02-17T23:32:07.742Z,91.09
2019-02-17T23:34:37.438Z,90.80
2019-02-17T23:37:09.801Z,90.60
2019-02-17T23:39:42.397Z,90.14
2019-02-17T23:42:14.492Z,89.69
2019-02-17T23:44:50.144Z,89.41
2019-02-17T23:47:23.846Z,89.36
2019-02-17T23:49:57.142Z,89.14
2019-02-17T23:52:29.389Z,88.74
2019-02-17T23:54:59.473Z,88.17
2019-02-17T23:57:29.908Z,87.79
2019-02-17T23:59:59.535Z,87.62
